sensor_id;sensor_type;location;lat;lon;timestamp;P1;durP1;ratioP1;P2;durP2;ratioP2
5937;SDS011;2994;51.220;4.412;2023-08-12T00:00:54;7.27;;;4.80;;
5937;SDS011;2994;51.220;4.412;2023-08-12T00:03:20;7.40;;;4.30;;
5937;SDS011;2994;51.220;4.412;2023-08-12T00:05:45;7.77;;;5.27;;
5937;SDS011;2994;51.220;4.412;2023-08-12T00:08:11;6.43;;;5.07;;
5937;SDS011;2994;51.220;4.412;2023-08-12T00:10:36;6.30;;;4.73;;
5937;SDS011;2994;51.220;4.412;2023-08-12T00:13:02;6.07;;;4.40;;
5937;SDS011;2994;51.220;4.412;2023-08-12T00:15:27;7.63;;;4.20;;
5937;SDS011;2994;51.220;4.412;2023-08-12T00:17:53;5.67;;;4.80;;
5937;SDS011;2994;51.220;4.412;2023-08-12T00:20:18;6.20;;;4.63;;
5937;SDS011;2994;51.220;4.412;2023-08-12T00:22:43;11.17;;;5.77;;
5937;SDS011;2994;51.220;4.412;2023-08-12T00:25:09;11.37;;;5.20;;
5937;SDS011;2994;51.220;4.412;2023-08-12T00:27:35;7.40;;;5.50;;
5937;SDS011;2994;51.220;4.412;2023-08-12T00:30:02;6.53;;;5.70;;
5937;SDS011;2994;51.220;4.412;2023-08-12T00:32:29;5.13;;;4.43;;
5937;SDS011;2994;51.220;4.412;2023-08-12T00:34:54;8.10;;;5.87;;
5937;SDS011;2994;51.220;4.412;2023-08-12T00:37:20;6.83;;;5.40;;
5937;SDS011;2994;51.220;4.412;2023-08-12T00:39:46;6.57;;;4.70;;
5937;SDS011;2994;51.220;4.412;2023-08-12T00:42:11;8.30;;;5.63;;
5937;SDS011;2994;51.220;4.412;2023-08-12T00:44:36;6.60;;;4.90;;
5937;SDS011;2994;51.220;4.412;2023-08-12T00:47:02;6.60;;;5.27;;
5937;SDS011;2994;51.220;4.412;2023-08-12T00:49:28;8.20;;;5.97;;
5937;SDS011;2994;51.220;4.412;2023-08-12T00:51:53;7.93;;;5.43;;
5937;SDS011;2994;51.220;4.412;2023-08-12T00:54:20;7.30;;;5.20;;
5937;SDS011;2994;51.220;4.412;2023-08-12T00:56:48;12.07;;;6.73;;
5937;SDS011;2994;51.220;4.412;2023-08-12T00:59:14;7.53;;;5.50;;
5937;SDS011;2994;51.220;4.412;2023-08-12T01:01:42;9.57;;;6.33;;
5937;SDS011;2994;51.220;4.412;2023-08-12T01:04:08;6.20;;;5.33;;
5937;SDS011;2994;51.220;4.412;2023-08-12T01:06:33;6.90;;;5.93;;
5937;SDS011;2994;51.220;4.412;2023-08-12T01:08:59;7.00;;;4.73;;
5937;SDS011;2994;51.220;4.412;2023-08-12T01:11:31;7.30;;;5.27;;
5937;SDS011;2994;51.220;4.412;2023-08-12T01:14:06;7.13;;;5.47;;
5937;SDS011;2994;51.220;4.412;2023-08-12T01:16:40;9.83;;;5.90;;
5937;SDS011;2994;51.220;4.412;2023-08-12T01:19:10;8.90;;;6.17;;
5937;SDS011;2994;51.220;4.412;2023-08-12T01:21:43;7.43;;;6.00;;
5937;SDS011;2994;51.220;4.412;2023-08-12T01:24:09;6.37;;;5.67;;
5937;SDS011;2994;51.220;4.412;2023-08-12T01:26:35;7.00;;;6.30;;
5937;SDS011;2994;51.220;4.412;2023-08-12T01:29:00;6.93;;;5.60;;
5937;SDS011;2994;51.220;4.412;2023-08-12T01:31:40;6.83;;;5.70;;
5937;SDS011;2994;51.220;4.412;2023-08-12T01:34:19;6.90;;;6.07;;
5937;SDS011;2994;51.220;4.412;2023-08-12T01:37:00;7.70;;;5.50;;
5937;SDS011;2994;51.220;4.412;2023-08-12T01:39:29;7.97;;;6.30;;
5937;SDS011;2994;51.220;4.412;2023-08-12T01:41:56;7.70;;;5.10;;
5937;SDS011;2994;51.220;4.412;2023-08-12T01:44:22;6.73;;;5.60;;
5937;SDS011;2994;51.220;4.412;2023-08-12T01:46:48;7.60;;;4.90;;
5937;SDS011;2994;51.220;4.412;2023-08-12T01:49:14;6.53;;;5.40;;
5937;SDS011;2994;51.220;4.412;2023-08-12T01:51:39;12.47;;;6.13;;
5937;SDS011;2994;51.220;4.412;2023-08-12T01:54:05;8.97;;;5.50;;
5937;SDS011;2994;51.220;4.412;2023-08-12T01:56:30;7.00;;;5.90;;
5937;SDS011;2994;51.220;4.412;2023-08-12T01:58:56;7.20;;;5.67;;
5937;SDS011;2994;51.220;4.412;2023-08-12T02:01:21;6.40;;;5.30;;
5937;SDS011;2994;51.220;4.412;2023-08-12T02:03:46;7.40;;;6.37;;
5937;SDS011;2994;51.220;4.412;2023-08-12T02:06:12;7.93;;;5.00;;
5937;SDS011;2994;51.220;4.412;2023-08-12T02:08:37;5.57;;;4.90;;
5937;SDS011;2994;51.220;4.412;2023-08-12T02:11:03;6.60;;;5.37;;
5937;SDS011;2994;51.220;4.412;2023-08-12T02:13:29;5.30;;;4.80;;
5937;SDS011;2994;51.220;4.412;2023-08-12T02:15:54;5.43;;;4.83;;
5937;SDS011;2994;51.220;4.412;2023-08-12T02:18:20;5.03;;;4.40;;
5937;SDS011;2994;51.220;4.412;2023-08-12T02:20:46;7.30;;;4.90;;
5937;SDS011;2994;51.220;4.412;2023-08-12T02:23:13;7.90;;;4.60;;
5937;SDS011;2994;51.220;4.412;2023-08-12T02:25:38;5.50;;;4.67;;
5937;SDS011;2994;51.220;4.412;2023-08-12T02:28:04;7.93;;;5.47;;
5937;SDS011;2994;51.220;4.412;2023-08-12T02:30:29;5.63;;;5.03;;
5937;SDS011;2994;51.220;4.412;2023-08-12T02:32:55;5.97;;;5.40;;
5937;SDS011;2994;51.220;4.412;2023-08-12T02:35:21;7.87;;;4.87;;
5937;SDS011;2994;51.220;4.412;2023-08-12T02:37:47;7.57;;;5.80;;
5937;SDS011;2994;51.220;4.412;2023-08-12T02:40:13;6.60;;;5.90;;
5937;SDS011;2994;51.220;4.412;2023-08-12T02:42:39;7.57;;;5.13;;
5937;SDS011;2994;51.220;4.412;2023-08-12T02:45:05;7.30;;;6.60;;
5937;SDS011;2994;51.220;4.412;2023-08-12T02:47:30;6.23;;;5.53;;
5937;SDS011;2994;51.220;4.412;2023-08-12T02:49:56;6.30;;;5.27;;
5937;SDS011;2994;51.220;4.412;2023-08-12T02:52:21;5.47;;;4.97;;
5937;SDS011;2994;51.220;4.412;2023-08-12T02:54:47;5.73;;;4.97;;
5937;SDS011;2994;51.220;4.412;2023-08-12T02:57:12;6.30;;;5.57;;
5937;SDS011;2994;51.220;4.412;2023-08-12T02:59:38;6.43;;;5.73;;
5937;SDS011;2994;51.220;4.412;2023-08-12T03:02:03;5.90;;;5.27;;
5937;SDS011;2994;51.220;4.412;2023-08-12T03:04:29;6.93;;;5.10;;
5937;SDS011;2994;51.220;4.412;2023-08-12T03:06:54;7.73;;;4.70;;
5937;SDS011;2994;51.220;4.412;2023-08-12T03:09:19;5.70;;;4.60;;
5937;SDS011;2994;51.220;4.412;2023-08-12T03:11:45;5.80;;;5.20;;
5937;SDS011;2994;51.220;4.412;2023-08-12T03:14:10;4.90;;;4.40;;
5937;SDS011;2994;51.220;4.412;2023-08-12T03:16:36;5.87;;;5.00;;
5937;SDS011;2994;51.220;4.412;2023-08-12T03:19:01;5.80;;;4.63;;
5937;SDS011;2994;51.220;4.412;2023-08-12T03:21:27;5.93;;;5.00;;
5937;SDS011;2994;51.220;4.412;2023-08-12T03:23:53;7.40;;;4.63;;
5937;SDS011;2994;51.220;4.412;2023-08-12T03:26:18;6.50;;;5.17;;
5937;SDS011;2994;51.220;4.412;2023-08-12T03:28:44;6.80;;;5.27;;
5937;SDS011;2994;51.220;4.412;2023-08-12T03:31:09;7.87;;;5.37;;
5937;SDS011;2994;51.220;4.412;2023-08-12T03:33:35;6.80;;;5.10;;
5937;SDS011;2994;51.220;4.412;2023-08-12T03:36:00;8.17;;;6.90;;
5937;SDS011;2994;51.220;4.412;2023-08-12T03:38:25;8.63;;;5.47;;
5937;SDS011;2994;51.220;4.412;2023-08-12T03:40:51;7.20;;;5.63;;
5937;SDS011;2994;51.220;4.412;2023-08-12T03:43:16;6.27;;;5.20;;
5937;SDS011;2994;51.220;4.412;2023-08-12T03:45:42;9.23;;;5.40;;
5937;SDS011;2994;51.220;4.412;2023-08-12T03:48:09;6.27;;;5.13;;
5937;SDS011;2994;51.220;4.412;2023-08-12T03:50:35;7.37;;;6.07;;
5937;SDS011;2994;51.220;4.412;2023-08-12T03:53:01;7.40;;;6.70;;
5937;SDS011;2994;51.220;4.412;2023-08-12T03:55:29;8.90;;;6.20;;
5937;SDS011;2994;51.220;4.412;2023-08-12T03:57:56;7.03;;;5.70;;
5937;SDS011;2994;51.220;4.412;2023-08-12T04:00:22;13.40;;;6.80;;
5937;SDS011;2994;51.220;4.412;2023-08-12T04:02:47;6.63;;;5.90;;
5937;SDS011;2994;51.220;4.412;2023-08-12T04:05:12;8.93;;;5.87;;
5937;SDS011;2994;51.220;4.412;2023-08-12T04:07:38;8.13;;;6.67;;
5937;SDS011;2994;51.220;4.412;2023-08-12T04:10:03;9.67;;;7.57;;
5937;SDS011;2994;51.220;4.412;2023-08-12T04:12:29;8.03;;;6.17;;
5937;SDS011;2994;51.220;4.412;2023-08-12T04:14:55;10.30;;;6.33;;
5937;SDS011;2994;51.220;4.412;2023-08-12T04:17:20;7.77;;;6.97;;
5937;SDS011;2994;51.220;4.412;2023-08-12T04:19:46;6.37;;;5.70;;
5937;SDS011;2994;51.220;4.412;2023-08-12T04:22:11;6.07;;;5.50;;
5937;SDS011;2994;51.220;4.412;2023-08-12T04:24:36;9.33;;;6.30;;
5937;SDS011;2994;51.220;4.412;2023-08-12T04:27:02;5.90;;;5.27;;
5937;SDS011;2994;51.220;4.412;2023-08-12T04:29:27;7.70;;;4.13;;
5937;SDS011;2994;51.220;4.412;2023-08-12T04:31:53;4.67;;;4.27;;
5937;SDS011;2994;51.220;4.412;2023-08-12T04:34:18;7.23;;;4.40;;
5937;SDS011;2994;51.220;4.412;2023-08-12T04:36:44;5.67;;;4.27;;
5937;SDS011;2994;51.220;4.412;2023-08-12T04:39:09;5.90;;;4.97;;
5937;SDS011;2994;51.220;4.412;2023-08-12T04:41:35;5.97;;;4.80;;
5937;SDS011;2994;51.220;4.412;2023-08-12T04:44:01;7.17;;;4.47;;
5937;SDS011;2994;51.220;4.412;2023-08-12T04:46:26;6.67;;;4.97;;
5937;SDS011;2994;51.220;4.412;2023-08-12T04:48:52;5.63;;;4.73;;
5937;SDS011;2994;51.220;4.412;2023-08-12T04:51:17;6.73;;;5.17;;
5937;SDS011;2994;51.220;4.412;2023-08-12T04:53:42;6.60;;;4.50;;
5937;SDS011;2994;51.220;4.412;2023-08-12T04:56:08;5.67;;;5.07;;
5937;SDS011;2994;51.220;4.412;2023-08-12T04:58:33;6.10;;;4.80;;
5937;SDS011;2994;51.220;4.412;2023-08-12T05:01:00;6.53;;;4.70;;
5937;SDS011;2994;51.220;4.412;2023-08-12T05:03:26;6.60;;;5.10;;
5937;SDS011;2994;51.220;4.412;2023-08-12T05:05:51;5.27;;;4.73;;
5937;SDS011;2994;51.220;4.412;2023-08-12T05:08:18;4.03;;;3.53;;
5937;SDS011;2994;51.220;4.412;2023-08-12T05:10:46;4.57;;;4.17;;
5937;SDS011;2994;51.220;4.412;2023-08-12T05:13:12;4.73;;;4.20;;
5937;SDS011;2994;51.220;4.412;2023-08-12T05:15:38;5.73;;;5.13;;
5937;SDS011;2994;51.220;4.412;2023-08-12T05:18:04;6.10;;;4.90;;
5937;SDS011;2994;51.220;4.412;2023-08-12T05:20:30;6.63;;;4.97;;
5937;SDS011;2994;51.220;4.412;2023-08-12T05:22:56;6.70;;;5.03;;
5937;SDS011;2994;51.220;4.412;2023-08-12T05:25:21;5.53;;;4.87;;
5937;SDS011;2994;51.220;4.412;2023-08-12T05:27:46;5.37;;;4.87;;
5937;SDS011;2994;51.220;4.412;2023-08-12T05:30:12;5.07;;;4.30;;
5937;SDS011;2994;51.220;4.412;2023-08-12T05:32:38;4.80;;;4.30;;
5937;SDS011;2994;51.220;4.412;2023-08-12T05:35:03;6.37;;;4.90;;
5937;SDS011;2994;51.220;4.412;2023-08-12T05:37:29;6.77;;;5.13;;
5937;SDS011;2994;51.220;4.412;2023-08-12T05:39:54;5.20;;;4.63;;
5937;SDS011;2994;51.220;4.412;2023-08-12T05:42:20;5.47;;;4.83;;
5937;SDS011;2994;51.220;4.412;2023-08-12T05:44:45;4.30;;;3.90;;
5937;SDS011;2994;51.220;4.412;2023-08-12T05:47:11;4.33;;;3.70;;
5937;SDS011;2994;51.220;4.412;2023-08-12T05:49:36;4.80;;;3.50;;
5937;SDS011;2994;51.220;4.412;2023-08-12T05:52:01;3.30;;;3.00;;
5937;SDS011;2994;51.220;4.412;2023-08-12T05:54:27;4.43;;;2.83;;
5937;SDS011;2994;51.220;4.412;2023-08-12T05:56:52;2.50;;;2.30;;
5937;SDS011;2994;51.220;4.412;2023-08-12T05:59:18;3.40;;;2.90;;
5937;SDS011;2994;51.220;4.412;2023-08-12T06:01:43;2.60;;;2.40;;
5937;SDS011;2994;51.220;4.412;2023-08-12T06:04:09;3.43;;;2.47;;
5937;SDS011;2994;51.220;4.412;2023-08-12T06:06:34;2.53;;;2.20;;
5937;SDS011;2994;51.220;4.412;2023-08-12T06:08:59;2.40;;;2.13;;
5937;SDS011;2994;51.220;4.412;2023-08-12T06:11:25;1.70;;;1.60;;
5937;SDS011;2994;51.220;4.412;2023-08-12T06:13:50;2.00;;;1.63;;
5937;SDS011;2994;51.220;4.412;2023-08-12T06:16:16;1.60;;;1.30;;
5937;SDS011;2994;51.220;4.412;2023-08-12T06:18:41;2.13;;;1.73;;
5937;SDS011;2994;51.220;4.412;2023-08-12T06:21:07;2.07;;;1.87;;
5937;SDS011;2994;51.220;4.412;2023-08-12T06:23:32;1.60;;;1.23;;
5937;SDS011;2994;51.220;4.412;2023-08-12T06:25:58;1.53;;;1.33;;
5937;SDS011;2994;51.220;4.412;2023-08-12T06:28:23;1.57;;;1.40;;
5937;SDS011;2994;51.220;4.412;2023-08-12T06:30:49;1.40;;;1.30;;
5937;SDS011;2994;51.220;4.412;2023-08-12T06:33:14;3.83;;;1.40;;
5937;SDS011;2994;51.220;4.412;2023-08-12T06:35:41;1.80;;;1.63;;
5937;SDS011;2994;51.220;4.412;2023-08-12T06:38:07;3.07;;;2.17;;
5937;SDS011;2994;51.220;4.412;2023-08-12T06:40:34;2.60;;;2.40;;
5937;SDS011;2994;51.220;4.412;2023-08-12T06:43:00;3.77;;;3.43;;
5937;SDS011;2994;51.220;4.412;2023-08-12T06:45:25;3.37;;;3.07;;
5937;SDS011;2994;51.220;4.412;2023-08-12T06:47:51;3.90;;;3.60;;
5937;SDS011;2994;51.220;4.412;2023-08-12T06:50:16;4.00;;;2.90;;
5937;SDS011;2994;51.220;4.412;2023-08-12T06:52:42;2.80;;;2.60;;
5937;SDS011;2994;51.220;4.412;2023-08-12T06:55:07;3.40;;;2.90;;
5937;SDS011;2994;51.220;4.412;2023-08-12T06:57:33;2.67;;;2.47;;
5937;SDS011;2994;51.220;4.412;2023-08-12T06:59:58;2.80;;;2.37;;
5937;SDS011;2994;51.220;4.412;2023-08-12T07:02:24;2.20;;;2.00;;
5937;SDS011;2994;51.220;4.412;2023-08-12T07:04:49;2.93;;;2.73;;
5937;SDS011;2994;51.220;4.412;2023-08-12T07:07:15;4.37;;;3.97;;
5937;SDS011;2994;51.220;4.412;2023-08-12T07:09:40;3.30;;;3.00;;
5937;SDS011;2994;51.220;4.412;2023-08-12T07:12:06;2.30;;;2.00;;
5937;SDS011;2994;51.220;4.412;2023-08-12T07:14:31;3.23;;;1.73;;
5937;SDS011;2994;51.220;4.412;2023-08-12T07:16:57;1.73;;;1.63;;
5937;SDS011;2994;51.220;4.412;2023-08-12T07:19:22;1.50;;;1.40;;
5937;SDS011;2994;51.220;4.412;2023-08-12T07:21:48;1.87;;;1.23;;
5937;SDS011;2994;51.220;4.412;2023-08-12T07:24:13;2.50;;;1.73;;
5937;SDS011;2994;51.220;4.412;2023-08-12T07:26:39;4.00;;;1.53;;
5937;SDS011;2994;51.220;4.412;2023-08-12T07:29:04;2.37;;;1.40;;
5937;SDS011;2994;51.220;4.412;2023-08-12T07:31:29;2.23;;;2.03;;
5937;SDS011;2994;51.220;4.412;2023-08-12T07:33:55;2.70;;;1.60;;
5937;SDS011;2994;51.220;4.412;2023-08-12T07:36:20;2.17;;;1.97;;
5937;SDS011;2994;51.220;4.412;2023-08-12T07:38:46;4.70;;;2.00;;
5937;SDS011;2994;51.220;4.412;2023-08-12T07:41:11;2.33;;;1.53;;
5937;SDS011;2994;51.220;4.412;2023-08-12T07:43:37;4.50;;;3.10;;
5937;SDS011;2994;51.220;4.412;2023-08-12T07:46:02;2.93;;;2.27;;
5937;SDS011;2994;51.220;4.412;2023-08-12T07:48:29;2.23;;;1.50;;
5937;SDS011;2994;51.220;4.412;2023-08-12T07:50:57;5.00;;;1.90;;
5937;SDS011;2994;51.220;4.412;2023-08-12T07:53:23;3.17;;;2.33;;
5937;SDS011;2994;51.220;4.412;2023-08-12T07:55:49;1.80;;;1.50;;
5937;SDS011;2994;51.220;4.412;2023-08-12T07:58:14;3.37;;;1.57;;
5937;SDS011;2994;51.220;4.412;2023-08-12T08:00:40;2.43;;;1.20;;
5937;SDS011;2994;51.220;4.412;2023-08-12T08:03:05;3.73;;;1.87;;
5937;SDS011;2994;51.220;4.412;2023-08-12T08:05:30;7.53;;;2.00;;
5937;SDS011;2994;51.220;4.412;2023-08-12T08:07:56;4.67;;;2.90;;
5937;SDS011;2994;51.220;4.412;2023-08-12T08:10:21;3.73;;;2.40;;
5937;SDS011;2994;51.220;4.412;2023-08-12T08:12:47;4.20;;;2.67;;
5937;SDS011;2994;51.220;4.412;2023-08-12T08:15:12;4.80;;;3.20;;
5937;SDS011;2994;51.220;4.412;2023-08-12T08:17:38;4.80;;;2.80;;
5937;SDS011;2994;51.220;4.412;2023-08-12T08:20:03;3.67;;;2.47;;
5937;SDS011;2994;51.220;4.412;2023-08-12T08:22:30;4.43;;;2.47;;
5937;SDS011;2994;51.220;4.412;2023-08-12T08:24:56;3.27;;;2.27;;
5937;SDS011;2994;51.220;4.412;2023-08-12T08:27:21;3.90;;;2.80;;
5937;SDS011;2994;51.220;4.412;2023-08-12T08:29:47;4.20;;;2.30;;
5937;SDS011;2994;51.220;4.412;2023-08-12T08:32:12;5.23;;;3.07;;
5937;SDS011;2994;51.220;4.412;2023-08-12T08:34:38;6.13;;;2.60;;
5937;SDS011;2994;51.220;4.412;2023-08-12T08:37:03;5.10;;;3.07;;
5937;SDS011;2994;51.220;4.412;2023-08-12T08:39:29;5.07;;;2.93;;
5937;SDS011;2994;51.220;4.412;2023-08-12T08:41:55;4.20;;;3.00;;
5937;SDS011;2994;51.220;4.412;2023-08-12T08:44:21;4.87;;;2.83;;
5937;SDS011;2994;51.220;4.412;2023-08-12T08:46:49;5.53;;;2.97;;
5937;SDS011;2994;51.220;4.412;2023-08-12T08:49:18;4.63;;;2.70;;
5937;SDS011;2994;51.220;4.412;2023-08-12T08:51:45;3.83;;;3.00;;
5937;SDS011;2994;51.220;4.412;2023-08-12T08:54:11;4.00;;;2.60;;
5937;SDS011;2994;51.220;4.412;2023-08-12T08:56:38;7.17;;;3.50;;
5937;SDS011;2994;51.220;4.412;2023-08-12T08:59:04;5.20;;;3.43;;
5937;SDS011;2994;51.220;4.412;2023-08-12T09:01:30;5.47;;;3.37;;
5937;SDS011;2994;51.220;4.412;2023-08-12T09:03:56;5.17;;;3.30;;
5937;SDS011;2994;51.220;4.412;2023-08-12T09:06:25;7.07;;;3.80;;
5937;SDS011;2994;51.220;4.412;2023-08-12T09:08:53;5.27;;;2.40;;
5937;SDS011;2994;51.220;4.412;2023-08-12T09:11:19;5.30;;;3.03;;
5937;SDS011;2994;51.220;4.412;2023-08-12T09:13:45;7.53;;;2.60;;
5937;SDS011;2994;51.220;4.412;2023-08-12T09:16:12;3.97;;;1.90;;
5937;SDS011;2994;51.220;4.412;2023-08-12T09:18:38;3.60;;;2.10;;
5937;SDS011;2994;51.220;4.412;2023-08-12T09:21:05;2.70;;;1.77;;
5937;SDS011;2994;51.220;4.412;2023-08-12T09:23:35;4.23;;;2.03;;
5937;SDS011;2994;51.220;4.412;2023-08-12T09:26:12;4.10;;;1.70;;
5937;SDS011;2994;51.220;4.412;2023-08-12T09:28:40;5.60;;;2.43;;
5937;SDS011;2994;51.220;4.412;2023-08-12T09:31:06;3.03;;;2.13;;
5937;SDS011;2994;51.220;4.412;2023-08-12T09:33:32;3.10;;;1.90;;
5937;SDS011;2994;51.220;4.412;2023-08-12T09:35:57;5.17;;;2.87;;
5937;SDS011;2994;51.220;4.412;2023-08-12T09:38:23;6.80;;;3.30;;
5937;SDS011;2994;51.220;4.412;2023-08-12T09:40:48;3.70;;;2.63;;
5937;SDS011;2994;51.220;4.412;2023-08-12T09:43:17;6.97;;;4.37;;
5937;SDS011;2994;51.220;4.412;2023-08-12T09:45:43;8.47;;;3.57;;
5937;SDS011;2994;51.220;4.412;2023-08-12T09:48:09;7.80;;;5.00;;
5937;SDS011;2994;51.220;4.412;2023-08-12T09:50:35;6.40;;;4.73;;
5937;SDS011;2994;51.220;4.412;2023-08-12T09:53:01;6.40;;;3.60;;
5937;SDS011;2994;51.220;4.412;2023-08-12T09:55:28;5.33;;;3.90;;
5937;SDS011;2994;51.220;4.412;2023-08-12T09:57:56;7.87;;;4.10;;
5937;SDS011;2994;51.220;4.412;2023-08-12T10:00:23;7.63;;;4.40;;
5937;SDS011;2994;51.220;4.412;2023-08-12T10:02:51;8.37;;;4.80;;
5937;SDS011;2994;51.220;4.412;2023-08-12T10:05:38;8.33;;;4.80;;
5937;SDS011;2994;51.220;4.412;2023-08-12T10:08:03;4.70;;;3.43;;
5937;SDS011;2994;51.220;4.412;2023-08-12T10:10:30;7.87;;;3.90;;
5937;SDS011;2994;51.220;4.412;2023-08-12T10:12:57;6.17;;;4.00;;
5937;SDS011;2994;51.220;4.412;2023-08-12T10:15:29;6.87;;;3.67;;
5937;SDS011;2994;51.220;4.412;2023-08-12T10:17:55;9.30;;;4.47;;
5937;SDS011;2994;51.220;4.412;2023-08-12T10:20:22;5.20;;;3.40;;
5937;SDS011;2994;51.220;4.412;2023-08-12T10:22:49;5.27;;;3.33;;
5937;SDS011;2994;51.220;4.412;2023-08-12T10:25:15;5.50;;;4.07;;
5937;SDS011;2994;51.220;4.412;2023-08-12T10:27:44;6.00;;;3.90;;
5937;SDS011;2994;51.220;4.412;2023-08-12T10:32:45;8.13;;;4.80;;
5937;SDS011;2994;51.220;4.412;2023-08-12T10:35:19;6.60;;;5.97;;
5937;SDS011;2994;51.220;4.412;2023-08-12T10:37:48;7.93;;;7.13;;
5937;SDS011;2994;51.220;4.412;2023-08-12T10:40:22;10.07;;;9.17;;
5937;SDS011;2994;51.220;4.412;2023-08-12T10:42:48;9.60;;;8.60;;
5937;SDS011;2994;51.220;4.412;2023-08-12T10:45:15;11.10;;;10.00;;
5937;SDS011;2994;51.220;4.412;2023-08-12T10:47:43;11.10;;;10.00;;
5937;SDS011;2994;51.220;4.412;2023-08-12T10:50:25;10.00;;;9.00;;
5937;SDS011;2994;51.220;4.412;2023-08-12T10:52:51;11.37;;;10.27;;
5937;SDS011;2994;51.220;4.412;2023-08-12T10:55:22;13.50;;;12.10;;
5937;SDS011;2994;51.220;4.412;2023-08-12T10:57:49;12.80;;;11.50;;
5937;SDS011;2994;51.220;4.412;2023-08-12T11:02:45;12.90;;;11.70;;
5937;SDS011;2994;51.220;4.412;2023-08-12T11:05:13;13.17;;;11.87;;
5937;SDS011;2994;51.220;4.412;2023-08-12T11:07:46;16.73;;;15.23;;
5937;SDS011;2994;51.220;4.412;2023-08-12T11:10:24;16.30;;;14.60;;
5937;SDS011;2994;51.220;4.412;2023-08-12T11:15:17;12.20;;;11.00;;
5937;SDS011;2994;51.220;4.412;2023-08-12T11:18:12;9.50;;;8.70;;
5937;SDS011;2994;51.220;4.412;2023-08-12T11:20:39;7.90;;;7.20;;
5937;SDS011;2994;51.220;4.412;2023-08-12T11:23:06;7.17;;;5.40;;
5937;SDS011;2994;51.220;4.412;2023-08-12T11:25:32;6.40;;;5.80;;
5937;SDS011;2994;51.220;4.412;2023-08-12T11:27:59;7.10;;;6.40;;
5937;SDS011;2994;51.220;4.412;2023-08-12T11:30:25;7.10;;;6.07;;
5937;SDS011;2994;51.220;4.412;2023-08-12T11:32:52;6.27;;;5.73;;
5937;SDS011;2994;51.220;4.412;2023-08-12T11:35:20;5.77;;;5.37;;
5937;SDS011;2994;51.220;4.412;2023-08-12T11:37:46;4.97;;;3.57;;
5937;SDS011;2994;51.220;4.412;2023-08-12T11:40:14;3.73;;;3.23;;
5937;SDS011;2994;51.220;4.412;2023-08-12T11:42:43;3.87;;;3.20;;
5937;SDS011;2994;51.220;4.412;2023-08-12T11:45:10;4.03;;;2.70;;
5937;SDS011;2994;51.220;4.412;2023-08-12T11:47:37;3.90;;;2.40;;
5937;SDS011;2994;51.220;4.412;2023-08-12T11:50:06;3.60;;;3.30;;
5937;SDS011;2994;51.220;4.412;2023-08-12T11:52:33;4.20;;;2.67;;
5937;SDS011;2994;51.220;4.412;2023-08-12T11:54:59;5.03;;;2.60;;
5937;SDS011;2994;51.220;4.412;2023-08-12T11:57:25;4.80;;;2.57;;
5937;SDS011;2994;51.220;4.412;2023-08-12T11:59:53;3.00;;;2.70;;
5937;SDS011;2994;51.220;4.412;2023-08-12T12:02:24;6.93;;;2.47;;
5937;SDS011;2994;51.220;4.412;2023-08-12T12:04:51;5.37;;;2.43;;
5937;SDS011;2994;51.220;4.412;2023-08-12T12:07:17;3.80;;;1.80;;
5937;SDS011;2994;51.220;4.412;2023-08-12T12:09:52;4.30;;;2.50;;
5937;SDS011;2994;51.220;4.412;2023-08-12T12:12:25;6.63;;;2.67;;
5937;SDS011;2994;51.220;4.412;2023-08-12T12:14:52;3.57;;;2.30;;
5937;SDS011;2994;51.220;4.412;2023-08-12T12:17:20;3.07;;;2.60;;
5937;SDS011;2994;51.220;4.412;2023-08-12T12:19:46;4.67;;;2.30;;
5937;SDS011;2994;51.220;4.412;2023-08-12T12:22:12;3.60;;;2.60;;
5937;SDS011;2994;51.220;4.412;2023-08-12T12:24:47;2.60;;;1.83;;
5937;SDS011;2994;51.220;4.412;2023-08-12T12:27:13;7.13;;;2.77;;
5937;SDS011;2994;51.220;4.412;2023-08-12T12:29:39;4.93;;;2.40;;
5937;SDS011;2994;51.220;4.412;2023-08-12T12:32:05;3.53;;;2.27;;
5937;SDS011;2994;51.220;4.412;2023-08-12T12:34:30;3.70;;;2.20;;
5937;SDS011;2994;51.220;4.412;2023-08-12T12:36:56;6.93;;;2.93;;
5937;SDS011;2994;51.220;4.412;2023-08-12T12:39:21;4.73;;;2.20;;
5937;SDS011;2994;51.220;4.412;2023-08-12T12:41:50;3.57;;;2.53;;
5937;SDS011;2994;51.220;4.412;2023-08-12T12:44:15;5.67;;;2.40;;
5937;SDS011;2994;51.220;4.412;2023-08-12T12:46:41;5.40;;;2.50;;
5937;SDS011;2994;51.220;4.412;2023-08-12T12:49:06;4.80;;;2.20;;
5937;SDS011;2994;51.220;4.412;2023-08-12T12:51:31;4.43;;;2.40;;
5937;SDS011;2994;51.220;4.412;2023-08-12T12:53:57;2.90;;;2.50;;
5937;SDS011;2994;51.220;4.412;2023-08-12T12:56:22;7.53;;;2.73;;
5937;SDS011;2994;51.220;4.412;2023-08-12T12:58:48;2.90;;;2.30;;
5937;SDS011;2994;51.220;4.412;2023-08-12T13:01:13;3.40;;;2.33;;
5937;SDS011;2994;51.220;4.412;2023-08-12T13:03:39;3.00;;;2.17;;
5937;SDS011;2994;51.220;4.412;2023-08-12T13:06:04;3.77;;;2.60;;
5937;SDS011;2994;51.220;4.412;2023-08-12T13:08:30;4.27;;;2.33;;
5937;SDS011;2994;51.220;4.412;2023-08-12T13:10:56;4.70;;;3.20;;
5937;SDS011;2994;51.220;4.412;2023-08-12T13:13:22;4.50;;;3.10;;
5937;SDS011;2994;51.220;4.412;2023-08-12T13:15:48;5.97;;;3.00;;
5937;SDS011;2994;51.220;4.412;2023-08-12T13:18:14;4.60;;;3.60;;
5937;SDS011;2994;51.220;4.412;2023-08-12T13:20:39;3.40;;;3.10;;
5937;SDS011;2994;51.220;4.412;2023-08-12T13:23:05;5.60;;;2.90;;
5937;SDS011;2994;51.220;4.412;2023-08-12T13:25:31;4.50;;;2.60;;
5937;SDS011;2994;51.220;4.412;2023-08-12T13:28:01;4.20;;;2.83;;
5937;SDS011;2994;51.220;4.412;2023-08-12T13:30:27;5.10;;;2.70;;
5937;SDS011;2994;51.220;4.412;2023-08-12T13:32:53;4.17;;;2.73;;
5937;SDS011;2994;51.220;4.412;2023-08-12T13:35:19;4.50;;;2.63;;
5937;SDS011;2994;51.220;4.412;2023-08-12T13:37:45;4.00;;;2.30;;
5937;SDS011;2994;51.220;4.412;2023-08-12T13:40:10;4.80;;;3.00;;
5937;SDS011;2994;51.220;4.412;2023-08-12T13:42:36;4.53;;;2.27;;
5937;SDS011;2994;51.220;4.412;2023-08-12T13:45:02;4.17;;;1.93;;
5937;SDS011;2994;51.220;4.412;2023-08-12T13:47:28;5.13;;;2.67;;
5937;SDS011;2994;51.220;4.412;2023-08-12T13:49:54;2.93;;;1.70;;
5937;SDS011;2994;51.220;4.412;2023-08-12T13:52:19;4.17;;;1.97;;
5937;SDS011;2994;51.220;4.412;2023-08-12T13:54:45;3.90;;;1.90;;
5937;SDS011;2994;51.220;4.412;2023-08-12T13:57:10;2.67;;;1.83;;
5937;SDS011;2994;51.220;4.412;2023-08-12T13:59:36;4.80;;;2.43;;
5937;SDS011;2994;51.220;4.412;2023-08-12T14:02:02;3.30;;;2.30;;
5937;SDS011;2994;51.220;4.412;2023-08-12T14:04:28;4.30;;;2.40;;
5937;SDS011;2994;51.220;4.412;2023-08-12T14:06:53;5.07;;;2.27;;
5937;SDS011;2994;51.220;4.412;2023-08-12T14:09:19;4.17;;;2.43;;
5937;SDS011;2994;51.220;4.412;2023-08-12T14:11:45;4.27;;;2.37;;
5937;SDS011;2994;51.220;4.412;2023-08-12T14:14:10;5.97;;;2.90;;
5937;SDS011;2994;51.220;4.412;2023-08-12T14:16:36;5.33;;;3.00;;
5937;SDS011;2994;51.220;4.412;2023-08-12T14:19:02;6.27;;;3.73;;
5937;SDS011;2994;51.220;4.412;2023-08-12T14:21:27;3.57;;;2.20;;
5937;SDS011;2994;51.220;4.412;2023-08-12T14:23:53;3.67;;;2.77;;
5937;SDS011;2994;51.220;4.412;2023-08-12T14:26:18;5.40;;;2.97;;
5937;SDS011;2994;51.220;4.412;2023-08-12T14:28:44;7.60;;;3.37;;
5937;SDS011;2994;51.220;4.412;2023-08-12T14:31:09;6.50;;;3.00;;
5937;SDS011;2994;51.220;4.412;2023-08-12T14:33:35;5.03;;;3.00;;
5937;SDS011;2994;51.220;4.412;2023-08-12T14:36:02;5.13;;;2.40;;
5937;SDS011;2994;51.220;4.412;2023-08-12T14:38:28;4.57;;;2.50;;
5937;SDS011;2994;51.220;4.412;2023-08-12T14:40:53;5.50;;;2.60;;
5937;SDS011;2994;51.220;4.412;2023-08-12T14:43:22;4.80;;;2.43;;
5937;SDS011;2994;51.220;4.412;2023-08-12T14:45:47;3.30;;;2.30;;
5937;SDS011;2994;51.220;4.412;2023-08-12T14:48:13;3.70;;;2.60;;
5937;SDS011;2994;51.220;4.412;2023-08-12T14:50:40;6.10;;;3.07;;
5937;SDS011;2994;51.220;4.412;2023-08-12T14:53:06;4.87;;;2.90;;
5937;SDS011;2994;51.220;4.412;2023-08-12T14:55:32;3.37;;;2.37;;
5937;SDS011;2994;51.220;4.412;2023-08-12T14:57:57;4.90;;;2.53;;
5937;SDS011;2994;51.220;4.412;2023-08-12T15:00:23;4.93;;;2.60;;
5937;SDS011;2994;51.220;4.412;2023-08-12T15:02:48;3.20;;;2.40;;
5937;SDS011;2994;51.220;4.412;2023-08-12T15:05:14;3.10;;;2.53;;
5937;SDS011;2994;51.220;4.412;2023-08-12T15:07:39;3.77;;;2.70;;
5937;SDS011;2994;51.220;4.412;2023-08-12T15:10:05;5.93;;;2.67;;
5937;SDS011;2994;51.220;4.412;2023-08-12T15:12:31;3.57;;;2.50;;
5937;SDS011;2994;51.220;4.412;2023-08-12T15:14:56;4.00;;;2.17;;
5937;SDS011;2994;51.220;4.412;2023-08-12T15:17:22;5.30;;;2.43;;